sensor_id;sensor_type;location;lat;lon;timestamp;P1;durP1;ratioP1;P2;durP2;ratioP2
60464;SDS011;46314;52.392;9.758;2023-01-10T00:02:16;15.80;;;9.25;;
60464;SDS011;46314;52.392;9.758;2023-01-10T00:04:42;15.02;;;8.52;;
60464;SDS011;46314;52.392;9.758;2023-01-10T00:07:09;15.50;;;8.88;;
60464;SDS011;46314;52.392;9.758;2023-01-10T00:09:35;15.18;;;8.45;;
60464;SDS011;46314;52.392;9.758;2023-01-10T00:12:02;16.75;;;8.82;;
60464;SDS011;46314;52.392;9.758;2023-01-10T00:14:28;15.93;;;7.95;;
60464;SDS011;46314;52.392;9.758;2023-01-10T00:16:55;14.55;;;9.43;;
60464;SDS011;46314;52.392;9.758;2023-01-10T00:19:23;19.20;;;9.15;;
60464;SDS011;46314;52.392;9.758;2023-01-10T00:21:49;15.57;;;10.80;;
60464;SDS011;46314;52.392;9.758;2023-01-10T00:24:16;15.88;;;9.10;;
60464;SDS011;46314;52.392;9.758;2023-01-10T00:26:43;17.30;;;9.85;;
60464;SDS011;46314;52.392;9.758;2023-01-10T00:29:09;13.85;;;9.45;;
60464;SDS011;46314;52.392;9.758;2023-01-10T00:31:36;16.38;;;9.30;;
60464;SDS011;46314;52.392;9.758;2023-01-10T00:34:02;20.85;;;9.45;;
60464;SDS011;46314;52.392;9.758;2023-01-10T00:36:30;18.33;;;9.82;;
60464;SDS011;46314;52.392;9.758;2023-01-10T00:38:56;17.83;;;9.85;;
60464;SDS011;46314;52.392;9.758;2023-01-10T00:41:23;21.73;;;9.95;;
60464;SDS011;46314;52.392;9.758;2023-01-10T00:43:49;11.88;;;8.85;;
60464;SDS011;46314;52.392;9.758;2023-01-10T00:46:16;17.70;;;10.40;;
60464;SDS011;46314;52.392;9.758;2023-01-10T00:48:42;14.30;;;9.45;;
60464;SDS011;46314;52.392;9.758;2023-01-10T00:51:08;15.85;;;9.70;;
60464;SDS011;46314;52.392;9.758;2023-01-10T00:53:36;16.40;;;10.90;;
60464;SDS011;46314;52.392;9.758;2023-01-10T00:56:03;18.45;;;10.15;;
60464;SDS011;46314;52.392;9.758;2023-01-10T00:58:29;15.95;;;9.85;;
60464;SDS011;46314;52.392;9.758;2023-01-10T01:00:56;17.20;;;11.30;;
60464;SDS011;46314;52.392;9.758;2023-01-10T01:03:22;16.98;;;10.95;;
60464;SDS011;46314;52.392;9.758;2023-01-10T01:05:49;17.77;;;11.27;;
60464;SDS011;46314;52.392;9.758;2023-01-10T01:08:16;15.88;;;10.02;;
60464;SDS011;46314;52.392;9.758;2023-01-10T01:10:46;17.20;;;9.95;;
60464;SDS011;46314;52.392;9.758;2023-01-10T01:13:14;18.05;;;10.77;;
60464;SDS011;46314;52.392;9.758;2023-01-10T01:15:41;14.88;;;11.02;;
60464;SDS011;46314;52.392;9.758;2023-01-10T01:18:08;17.48;;;12.38;;
60464;SDS011;46314;52.392;9.758;2023-01-10T01:20:39;17.83;;;11.40;;
60464;SDS011;46314;52.392;9.758;2023-01-10T01:23:06;16.55;;;11.15;;
60464;SDS011;46314;52.392;9.758;2023-01-10T01:25:33;21.00;;;10.00;;
60464;SDS011;46314;52.392;9.758;2023-01-10T01:28:01;18.48;;;11.77;;
60464;SDS011;46314;52.392;9.758;2023-01-10T01:30:27;18.85;;;11.63;;
60464;SDS011;46314;52.392;9.758;2023-01-10T01:32:54;15.60;;;10.95;;
60464;SDS011;46314;52.392;9.758;2023-01-10T01:35:21;20.73;;;10.95;;
60464;SDS011;46314;52.392;9.758;2023-01-10T01:37:47;16.20;;;10.77;;
60464;SDS011;46314;52.392;9.758;2023-01-10T01:40:14;19.38;;;11.63;;
60464;SDS011;46314;52.392;9.758;2023-01-10T01:42:42;18.60;;;11.05;;
60464;SDS011;46314;52.392;9.758;2023-01-10T01:48:14;13.50;;;9.30;;
60464;SDS011;46314;52.392;9.758;2023-01-10T01:50:47;18.95;;;10.32;;
60464;SDS011;46314;52.392;9.758;2023-01-10T01:53:19;19.23;;;10.07;;
60464;SDS011;46314;52.392;9.758;2023-01-10T01:55:49;19.95;;;11.05;;
60464;SDS011;46314;52.392;9.758;2023-01-10T01:58:20;17.25;;;10.23;;
60464;SDS011;46314;52.392;9.758;2023-01-10T02:00:53;16.30;;;10.50;;
60464;SDS011;46314;52.392;9.758;2023-01-10T02:03:19;16.77;;;10.55;;
60464;SDS011;46314;52.392;9.758;2023-01-10T02:05:46;14.82;;;10.85;;
60464;SDS011;46314;52.392;9.758;2023-01-10T02:08:12;15.85;;;10.40;;
60464;SDS011;46314;52.392;9.758;2023-01-10T02:10:43;14.50;;;10.25;;
60464;SDS011;46314;52.392;9.758;2023-01-10T02:13:14;16.45;;;9.48;;
60464;SDS011;46314;52.392;9.758;2023-01-10T02:15:42;19.63;;;11.02;;
60464;SDS011;46314;52.392;9.758;2023-01-10T02:18:10;16.52;;;9.60;;
60464;SDS011;46314;52.392;9.758;2023-01-10T02:20:38;16.10;;;10.25;;
60464;SDS011;46314;52.392;9.758;2023-01-10T02:23:32;16.92;;;9.50;;
60464;SDS011;46314;52.392;9.758;2023-01-10T02:26:27;18.48;;;9.95;;
60464;SDS011;46314;52.392;9.758;2023-01-10T02:29:16;13.25;;;9.23;;
60464;SDS011;46314;52.392;9.758;2023-01-10T02:32:16;15.05;;;9.45;;
60464;SDS011;46314;52.392;9.758;2023-01-10T02:35:12;16.42;;;8.65;;
60464;SDS011;46314;52.392;9.758;2023-01-10T02:37:51;14.90;;;8.70;;
60464;SDS011;46314;52.392;9.758;2023-01-10T02:40:25;17.30;;;9.95;;
60464;SDS011;46314;52.392;9.758;2023-01-10T02:42:59;13.18;;;7.65;;
60464;SDS011;46314;52.392;9.758;2023-01-10T02:45:33;14.52;;;8.07;;
60464;SDS011;46314;52.392;9.758;2023-01-10T02:48:07;12.32;;;8.68;;
60464;SDS011;46314;52.392;9.758;2023-01-10T02:50:41;12.48;;;6.78;;
60464;SDS011;46314;52.392;9.758;2023-01-10T02:53:14;13.98;;;8.20;;
60464;SDS011;46314;52.392;9.758;2023-01-10T02:55:50;14.13;;;8.32;;
60464;SDS011;46314;52.392;9.758;2023-01-10T02:58:30;10.70;;;7.45;;
60464;SDS011;46314;52.392;9.758;2023-01-10T03:01:05;13.18;;;7.60;;
60464;SDS011;46314;52.392;9.758;2023-01-10T03:03:45;15.07;;;7.43;;
60464;SDS011;46314;52.392;9.758;2023-01-10T03:06:20;11.77;;;6.93;;
60464;SDS011;46314;52.392;9.758;2023-01-10T03:08:55;13.82;;;6.85;;
60464;SDS011;46314;52.392;9.758;2023-01-10T03:11:27;10.05;;;6.00;;
60464;SDS011;46314;52.392;9.758;2023-01-10T03:13:58;12.20;;;5.45;;
60464;SDS011;46314;52.392;9.758;2023-01-10T03:16:28;13.02;;;5.47;;
60464;SDS011;46314;52.392;9.758;2023-01-10T03:18:59;11.77;;;5.88;;
60464;SDS011;46314;52.392;9.758;2023-01-10T03:21:29;10.45;;;5.50;;
60464;SDS011;46314;52.392;9.758;2023-01-10T03:23:58;9.30;;;5.50;;
60464;SDS011;46314;52.392;9.758;2023-01-10T03:26:29;8.93;;;5.45;;
60464;SDS011;46314;52.392;9.758;2023-01-10T03:29:07;13.43;;;5.80;;
60464;SDS011;46314;52.392;9.758;2023-01-10T03:31:39;8.40;;;5.05;;
60464;SDS011;46314;52.392;9.758;2023-01-10T03:34:12;12.82;;;6.07;;
60464;SDS011;46314;52.392;9.758;2023-01-10T03:36:40;6.57;;;4.65;;
60464;SDS011;46314;52.392;9.758;2023-01-10T03:39:15;10.63;;;4.97;;
60464;SDS011;46314;52.392;9.758;2023-01-10T03:41:47;14.10;;;5.85;;
60464;SDS011;46314;52.392;9.758;2023-01-10T03:44:23;8.80;;;4.50;;
60464;SDS011;46314;52.392;9.758;2023-01-10T03:46:58;10.23;;;5.22;;
60464;SDS011;46314;52.392;9.758;2023-01-10T03:49:30;8.38;;;4.72;;
60464;SDS011;46314;52.392;9.758;2023-01-10T03:52:00;12.23;;;4.82;;
60464;SDS011;46314;52.392;9.758;2023-01-10T03:54:28;14.15;;;5.45;;
60464;SDS011;46314;52.392;9.758;2023-01-10T03:56:54;6.32;;;4.57;;
60464;SDS011;46314;52.392;9.758;2023-01-10T03:59:22;11.45;;;4.10;;
60464;SDS011;46314;52.392;9.758;2023-01-10T04:01:51;9.05;;;4.65;;
60464;SDS011;46314;52.392;9.758;2023-01-10T04:04:18;9.38;;;3.83;;
60464;SDS011;46314;52.392;9.758;2023-01-10T04:06:46;11.27;;;5.22;;
60464;SDS011;46314;52.392;9.758;2023-01-10T04:09:13;12.73;;;4.18;;
60464;SDS011;46314;52.392;9.758;2023-01-10T04:11:39;9.40;;;4.65;;
60464;SDS011;46314;52.392;9.758;2023-01-10T04:14:06;11.73;;;4.55;;
60464;SDS011;46314;52.392;9.758;2023-01-10T04:16:32;10.52;;;4.28;;
60464;SDS011;46314;52.392;9.758;2023-01-10T04:18:58;10.15;;;4.32;;
60464;SDS011;46314;52.392;9.758;2023-01-10T04:21:25;9.15;;;4.53;;
60464;SDS011;46314;52.392;9.758;2023-01-10T04:23:52;12.80;;;4.53;;
60464;SDS011;46314;52.392;9.758;2023-01-10T04:26:19;14.73;;;4.70;;
60464;SDS011;46314;52.392;9.758;2023-01-10T04:28:45;14.25;;;4.65;;
60464;SDS011;46314;52.392;9.758;2023-01-10T04:31:12;13.52;;;4.68;;
60464;SDS011;46314;52.392;9.758;2023-01-10T04:33:38;12.40;;;5.32;;
60464;SDS011;46314;52.392;9.758;2023-01-10T04:36:05;9.77;;;4.63;;
60464;SDS011;46314;52.392;9.758;2023-01-10T04:38:32;11.30;;;4.10;;
60464;SDS011;46314;52.392;9.758;2023-01-10T04:40:59;11.63;;;4.25;;
60464;SDS011;46314;52.392;9.758;2023-01-10T04:43:26;9.68;;;4.50;;
60464;SDS011;46314;52.392;9.758;2023-01-10T04:45:52;14.60;;;4.97;;
60464;SDS011;46314;52.392;9.758;2023-01-10T04:48:19;11.32;;;5.70;;
60464;SDS011;46314;52.392;9.758;2023-01-10T04:50:48;16.10;;;5.68;;
60464;SDS011;46314;52.392;9.758;2023-01-10T04:53:14;12.32;;;4.40;;
60464;SDS011;46314;52.392;9.758;2023-01-10T04:55:41;19.65;;;5.22;;
60464;SDS011;46314;52.392;9.758;2023-01-10T04:58:08;11.85;;;5.28;;
60464;SDS011;46314;52.392;9.758;2023-01-10T05:00:35;16.02;;;5.65;;
60464;SDS011;46314;52.392;9.758;2023-01-10T05:03:01;12.98;;;5.20;;
60464;SDS011;46314;52.392;9.758;2023-01-10T05:05:28;12.32;;;5.55;;
60464;SDS011;46314;52.392;9.758;2023-01-10T05:07:56;14.35;;;5.50;;
60464;SDS011;46314;52.392;9.758;2023-01-10T05:10:22;16.52;;;5.88;;
60464;SDS011;46314;52.392;9.758;2023-01-10T05:12:50;18.38;;;5.63;;
60464;SDS011;46314;52.392;9.758;2023-01-10T05:15:18;11.20;;;5.10;;
60464;SDS011;46314;52.392;9.758;2023-01-10T05:17:45;16.40;;;5.53;;
60464;SDS011;46314;52.392;9.758;2023-01-10T05:20:11;13.98;;;5.93;;
60464;SDS011;46314;52.392;9.758;2023-01-10T05:22:38;11.23;;;4.72;;
60464;SDS011;46314;52.392;9.758;2023-01-10T05:25:07;14.15;;;6.22;;
60464;SDS011;46314;52.392;9.758;2023-01-10T05:27:34;19.52;;;5.57;;
60464;SDS011;46314;52.392;9.758;2023-01-10T05:30:01;15.57;;;5.80;;
60464;SDS011;46314;52.392;9.758;2023-01-10T05:32:28;22.67;;;7.40;;
60464;SDS011;46314;52.392;9.758;2023-01-10T05:34:55;15.35;;;5.60;;
60464;SDS011;46314;52.392;9.758;2023-01-10T05:37:21;13.90;;;5.47;;
60464;SDS011;46314;52.392;9.758;2023-01-10T05:39:48;19.80;;;5.95;;
60464;SDS011;46314;52.392;9.758;2023-01-10T05:42:14;14.00;;;5.20;;
60464;SDS011;46314;52.392;9.758;2023-01-10T05:44:41;15.23;;;5.07;;
60464;SDS011;46314;52.392;9.758;2023-01-10T05:47:07;17.45;;;5.80;;
60464;SDS011;46314;52.392;9.758;2023-01-10T05:49:35;12.23;;;4.88;;
60464;SDS011;46314;52.392;9.758;2023-01-10T05:52:01;13.35;;;3.80;;
60464;SDS011;46314;52.392;9.758;2023-01-10T05:54:27;15.35;;;4.80;;
60464;SDS011;46314;52.392;9.758;2023-01-10T05:56:54;15.23;;;4.85;;
60464;SDS011;46314;52.392;9.758;2023-01-10T05:59:20;14.52;;;5.43;;
60464;SDS011;46314;52.392;9.758;2023-01-10T06:01:53;9.60;;;3.42;;
60464;SDS011;46314;52.392;9.758;2023-01-10T06:04:20;11.98;;;5.32;;
60464;SDS011;46314;52.392;9.758;2023-01-10T06:06:47;14.75;;;5.65;;
60464;SDS011;46314;52.392;9.758;2023-01-10T06:09:14;14.15;;;5.38;;
60464;SDS011;46314;52.392;9.758;2023-01-10T06:11:40;13.77;;;5.85;;
60464;SDS011;46314;52.392;9.758;2023-01-10T06:14:06;12.07;;;4.47;;
60464;SDS011;46314;52.392;9.758;2023-01-10T06:16:33;15.52;;;5.18;;
60464;SDS011;46314;52.392;9.758;2023-01-10T06:18:59;20.75;;;5.60;;
60464;SDS011;46314;52.392;9.758;2023-01-10T06:21:26;13.00;;;4.90;;
60464;SDS011;46314;52.392;9.758;2023-01-10T06:23:53;16.17;;;5.15;;
60464;SDS011;46314;52.392;9.758;2023-01-10T06:26:20;22.08;;;6.38;;
60464;SDS011;46314;52.392;9.758;2023-01-10T06:28:46;14.30;;;5.72;;
60464;SDS011;46314;52.392;9.758;2023-01-10T06:31:12;14.20;;;6.30;;
60464;SDS011;46314;52.392;9.758;2023-01-10T06:33:42;14.35;;;5.88;;
60464;SDS011;46314;52.392;9.758;2023-01-10T06:36:08;18.63;;;7.28;;
60464;SDS011;46314;52.392;9.758;2023-01-10T06:38:35;19.95;;;7.03;;
60464;SDS011;46314;52.392;9.758;2023-01-10T06:41:03;16.85;;;6.45;;
60464;SDS011;46314;52.392;9.758;2023-01-10T06:43:30;20.48;;;7.63;;
60464;SDS011;46314;52.392;9.758;2023-01-10T06:45:56;21.63;;;7.63;;
60464;SDS011;46314;52.392;9.758;2023-01-10T06:48:22;14.10;;;7.35;;
60464;SDS011;46314;52.392;9.758;2023-01-10T06:50:49;16.15;;;6.95;;
60464;SDS011;46314;52.392;9.758;2023-01-10T06:53:15;14.85;;;6.78;;
60464;SDS011;46314;52.392;9.758;2023-01-10T06:55:41;19.65;;;7.20;;
60464;SDS011;46314;52.392;9.758;2023-01-10T06:58:09;18.38;;;6.57;;
60464;SDS011;46314;52.392;9.758;2023-01-10T07:00:36;15.88;;;6.95;;
60464;SDS011;46314;52.392;9.758;2023-01-10T07:03:02;15.15;;;6.53;;
60464;SDS011;46314;52.392;9.758;2023-01-10T07:05:28;18.30;;;7.65;;
60464;SDS011;46314;52.392;9.758;2023-01-10T07:07:55;23.13;;;7.60;;
60464;SDS011;46314;52.392;9.758;2023-01-10T07:10:22;19.23;;;7.43;;
60464;SDS011;46314;52.392;9.758;2023-01-10T07:12:48;19.17;;;7.47;;
60464;SDS011;46314;52.392;9.758;2023-01-10T07:15:16;15.45;;;7.43;;
60464;SDS011;46314;52.392;9.758;2023-01-10T07:17:42;23.73;;;7.45;;
60464;SDS011;46314;52.392;9.758;2023-01-10T07:20:09;22.08;;;9.50;;
60464;SDS011;46314;52.392;9.758;2023-01-10T07:22:36;13.18;;;7.45;;
60464;SDS011;46314;52.392;9.758;2023-01-10T07:25:03;15.40;;;7.72;;
60464;SDS011;46314;52.392;9.758;2023-01-10T07:27:30;19.45;;;8.65;;
60464;SDS011;46314;52.392;9.758;2023-01-10T07:29:57;17.95;;;7.95;;
60464;SDS011;46314;52.392;9.758;2023-01-10T07:32:25;19.02;;;8.48;;
60464;SDS011;46314;52.392;9.758;2023-01-10T07:34:52;17.77;;;7.90;;
60464;SDS011;46314;52.392;9.758;2023-01-10T07:37:18;18.85;;;9.25;;
60464;SDS011;46314;52.392;9.758;2023-01-10T07:39:44;15.63;;;8.27;;
60464;SDS011;46314;52.392;9.758;2023-01-10T07:42:11;21.67;;;8.88;;
60464;SDS011;46314;52.392;9.758;2023-01-10T07:44:37;20.67;;;8.48;;
60464;SDS011;46314;52.392;9.758;2023-01-10T07:47:03;19.60;;;8.10;;
60464;SDS011;46314;52.392;9.758;2023-01-10T07:49:31;20.25;;;8.88;;
60464;SDS011;46314;52.392;9.758;2023-01-10T07:51:58;20.25;;;7.25;;
60464;SDS011;46314;52.392;9.758;2023-01-10T07:54:24;18.35;;;8.10;;
60464;SDS011;46314;52.392;9.758;2023-01-10T07:56:51;14.15;;;7.50;;
60464;SDS011;46314;52.392;9.758;2023-01-10T07:59:17;22.75;;;8.10;;
60464;SDS011;46314;52.392;9.758;2023-01-10T08:01:43;13.23;;;8.68;;
60464;SDS011;46314;52.392;9.758;2023-01-10T08:04:10;17.35;;;9.52;;
60464;SDS011;46314;52.392;9.758;2023-01-10T08:06:37;21.23;;;8.27;;
60464;SDS011;46314;52.392;9.758;2023-01-10T08:09:04;14.48;;;8.57;;
60464;SDS011;46314;52.392;9.758;2023-01-10T08:11:30;19.77;;;8.63;;
60464;SDS011;46314;52.392;9.758;2023-01-10T08:13:57;20.30;;;8.70;;
60464;SDS011;46314;52.392;9.758;2023-01-10T08:16:23;16.55;;;9.00;;
60464;SDS011;46314;52.392;9.758;2023-01-10T08:18:49;16.45;;;8.25;;
60464;SDS011;46314;52.392;9.758;2023-01-10T08:21:16;14.82;;;8.18;;
60464;SDS011;46314;52.392;9.758;2023-01-10T08:23:44;18.52;;;9.57;;
60464;SDS011;46314;52.392;9.758;2023-01-10T08:26:10;15.05;;;8.23;;
60464;SDS011;46314;52.392;9.758;2023-01-10T08:28:36;13.65;;;8.40;;
60464;SDS011;46314;52.392;9.758;2023-01-10T08:31:03;16.35;;;8.65;;
60464;SDS011;46314;52.392;9.758;2023-01-10T08:33:31;22.10;;;8.73;;
60464;SDS011;46314;52.392;9.758;2023-01-10T08:35:57;15.80;;;7.85;;
60464;SDS011;46314;52.392;9.758;2023-01-10T08:38:23;19.30;;;7.82;;
60464;SDS011;46314;52.392;9.758;2023-01-10T08:40:51;15.73;;;7.97;;
60464;SDS011;46314;52.392;9.758;2023-01-10T08:43:20;18.00;;;8.80;;
60464;SDS011;46314;52.392;9.758;2023-01-10T08:45:47;17.45;;;8.60;;
60464;SDS011;46314;52.392;9.758;2023-01-10T08:48:14;20.00;;;7.85;;
60464;SDS011;46314;52.392;9.758;2023-01-10T08:50:40;14.95;;;8.25;;
60464;SDS011;46314;52.392;9.758;2023-01-10T08:53:06;17.45;;;7.90;;
60464;SDS011;46314;52.392;9.758;2023-01-10T08:55:33;15.52;;;8.43;;
60464;SDS011;46314;52.392;9.758;2023-01-10T08:58:01;18.65;;;8.27;;
60464;SDS011;46314;52.392;9.758;2023-01-10T09:00:28;21.80;;;9.52;;
60464;SDS011;46314;52.392;9.758;2023-01-10T09:02:54;20.23;;;8.95;;
60464;SDS011;46314;52.392;9.758;2023-01-10T09:05:21;13.85;;;8.40;;
60464;SDS011;46314;52.392;9.758;2023-01-10T09:07:56;20.15;;;9.23;;
60464;SDS011;46314;52.392;9.758;2023-01-10T09:10:23;22.50;;;8.35;;
60464;SDS011;46314;52.392;9.758;2023-01-10T09:12:49;17.52;;;8.05;;
60464;SDS011;46314;52.392;9.758;2023-01-10T09:15:17;20.95;;;8.98;;
60464;SDS011;46314;52.392;9.758;2023-01-10T09:17:44;19.20;;;8.30;;
60464;SDS011;46314;52.392;9.758;2023-01-10T09:20:10;18.90;;;9.63;;
60464;SDS011;46314;52.392;9.758;2023-01-10T09:22:37;22.38;;;9.38;;
60464;SDS011;46314;52.392;9.758;2023-01-10T09:25:04;21.42;;;10.50;;
60464;SDS011;46314;52.392;9.758;2023-01-10T09:27:32;18.08;;;9.65;;
60464;SDS011;46314;52.392;9.758;2023-01-10T09:29:58;18.95;;;9.82;;
60464;SDS011;46314;52.392;9.758;2023-01-10T09:32:26;20.48;;;8.98;;
60464;SDS011;46314;52.392;9.758;2023-01-10T09:34:52;20.48;;;10.68;;
60464;SDS011;46314;52.392;9.758;2023-01-10T09:37:22;19.23;;;10.43;;
60464;SDS011;46314;52.392;9.758;2023-01-10T09:39:48;24.20;;;9.93;;
60464;SDS011;46314;52.392;9.758;2023-01-10T09:42:21;23.33;;;10.23;;
60464;SDS011;46314;52.392;9.758;2023-01-10T09:44:58;18.63;;;11.13;;
60464;SDS011;46314;52.392;9.758;2023-01-10T09:47:34;19.02;;;11.07;;
60464;SDS011;46314;52.392;9.758;2023-01-10T09:50:09;22.45;;;11.55;;
60464;SDS011;46314;52.392;9.758;2023-01-10T09:52:42;29.45;;;11.50;;
60464;SDS011;46314;52.392;9.758;2023-01-10T09:55:21;20.77;;;10.68;;
60464;SDS011;46314;52.392;9.758;2023-01-10T09:57:50;18.52;;;10.35;;
60464;SDS011;46314;52.392;9.758;2023-01-10T10:00:21;26.77;;;12.38;;
60464;SDS011;46314;52.392;9.758;2023-01-10T10:02:55;20.98;;;10.55;;
60464;SDS011;46314;52.392;9.758;2023-01-10T10:05:22;22.25;;;12.10;;
60464;SDS011;46314;52.392;9.758;2023-01-10T10:07:51;23.80;;;12.52;;
60464;SDS011;46314;52.392;9.758;2023-01-10T10:10:21;28.30;;;11.95;;
60464;SDS011;46314;52.392;9.758;2023-01-10T10:12:53;23.13;;;11.38;;
60464;SDS011;46314;52.392;9.758;2023-01-10T10:15:31;21.25;;;12.68;;
60464;SDS011;46314;52.392;9.758;2023-01-10T10:18:12;23.90;;;12.57;;
60464;SDS011;46314;52.392;9.758;2023-01-10T10:20:50;24.70;;;13.68;;
60464;SDS011;46314;52.392;9.758;2023-01-10T10:23:31;26.55;;;12.63;;
60464;SDS011;46314;52.392;9.758;2023-01-10T10:26:16;24.65;;;13.25;;
60464;SDS011;46314;52.392;9.758;2023-01-10T10:28:51;20.90;;;12.57;;
60464;SDS011;46314;52.392;9.758;2023-01-10T10:31:32;24.65;;;12.98;;
60464;SDS011;46314;52.392;9.758;2023-01-10T10:34:12;25.15;;;12.85;;
60464;SDS011;46314;52.392;9.758;2023-01-10T10:36:49;30.73;;;12.77;;
60464;SDS011;46314;52.392;9.758;2023-01-10T10:39:20;19.67;;;12.57;;
60464;SDS011;46314;52.392;9.758;2023-01-10T10:41:49;19.50;;;12.98;;
60464;SDS011;46314;52.392;9.758;2023-01-10T10:44:24;27.95;;;14.63;;
60464;SDS011;46314;52.392;9.758;2023-01-10T10:46:56;24.13;;;13.07;;
60464;SDS011;46314;52.392;9.758;2023-01-10T10:49:28;25.70;;;13.57;;
60464;SDS011;46314;52.392;9.758;2023-01-10T10:52:02;24.58;;;13.80;;
60464;SDS011;46314;52.392;9.758;2023-01-10T10:54:35;25.50;;;14.07;;
60464;SDS011;46314;52.392;9.758;2023-01-10T10:57:02;22.38;;;11.93;;
60464;SDS011;46314;52.392;9.758;2023-01-10T10:59:28;17.65;;;12.02;;
60464;SDS011;46314;52.392;9.758;2023-01-10T11:01:56;21.33;;;10.23;;
60464;SDS011;46314;52.392;9.758;2023-01-10T11:04:23;20.58;;;11.07;;
60464;SDS011;46314;52.392;9.758;2023-01-10T11:06:56;29.52;;;12.10;;
60464;SDS011;46314;52.392;9.758;2023-01-10T11:09:23;20.27;;;11.38;;
60464;SDS011;46314;52.392;9.758;2023-01-10T11:11:52;18.75;;;11.07;;
60464;SDS011;46314;52.392;9.758;2023-01-10T11:17:21;16.10;;;10.00;;
60464;SDS011;46314;52.392;9.758;2023-01-10T11:19:55;17.70;;;10.20;;
60464;SDS011;46314;52.392;9.758;2023-01-10T11:22:23;18.08;;;10.48;;
60464;SDS011;46314;52.392;9.758;2023-01-10T11:24:52;17.58;;;10.38;;
60464;SDS011;46314;52.392;9.758;2023-01-10T11:27:21;20.95;;;9.43;;
60464;SDS011;46314;52.392;9.758;2023-01-10T11:29:49;22.08;;;9.80;;
60464;SDS011;46314;52.392;9.758;2023-01-10T11:32:18;21.83;;;11.60;;
60464;SDS011;46314;52.392;9.758;2023-01-10T11:34:48;24.20;;;10.90;;
60464;SDS011;46314;52.392;9.758;2023-01-10T11:37:19;20.80;;;10.43;;
60464;SDS011;46314;52.392;9.758;2023-01-10T11:39:47;26.08;;;11.23;;
60464;SDS011;46314;52.392;9.758;2023-01-10T11:42:24;20.10;;;11.40;;
60464;SDS011;46314;52.392;9.758;2023-01-10T11:44:56;19.00;;;10.63;;
60464;SDS011;46314;52.392;9.758;2023-01-10T11:47:47;23.75;;;11.18;;
60464;SDS011;46314;52.392;9.758;2023-01-10T11:50:16;21.30;;;12.23;;
60464;SDS011;46314;52.392;9.758;2023-01-10T11:52:47;17.73;;;11.63;;
60464;SDS011;46314;52.392;9.758;2023-01-10T11:55:16;27.65;;;13.00;;
60464;SDS011;46314;52.392;9.758;2023-01-10T11:57:45;19.63;;;11.10;;
60464;SDS011;46314;52.392;9.758;2023-01-10T12:00:19;23.30;;;11.15;;
60464;SDS011;46314;52.392;9.758;2023-01-10T12:02:46;20.98;;;11.73;;
60464;SDS011;46314;52.392;9.758;2023-01-10T12:05:17;23.92;;;10.38;;
60464;SDS011;46314;52.392;9.758;2023-01-10T12:07:56;19.13;;;12.38;;
60464;SDS011;46314;52.392;9.758;2023-01-10T12:10:25;21.30;;;12.13;;
60464;SDS011;46314;52.392;9.758;2023-01-10T12:12:53;22.65;;;11.30;;
60464;SDS011;46314;52.392;9.758;2023-01-10T12:15:23;23.27;;;11.60;;
60464;SDS011;46314;52.392;9.758;2023-01-10T12:17:51;23.98;;;11.73;;
60464;SDS011;46314;52.392;9.758;2023-01-10T12:20:19;18.95;;;11.38;;
60464;SDS011;46314;52.392;9.758;2023-01-10T12:22:48;22.88;;;10.68;;
60464;SDS011;46314;52.392;9.758;2023-01-10T12:25:23;20.48;;;10.27;;
60464;SDS011;46314;52.392;9.758;2023-01-10T12:27:57;18.67;;;9.50;;
60464;SDS011;46314;52.392;9.758;2023-01-10T12:30:27;22.95;;;9.18;;
60464;SDS011;46314;52.392;9.758;2023-01-10T12:32:57;20.80;;;8.43;;
60464;SDS011;46314;52.392;9.758;2023-01-10T12:35:32;28.98;;;11.27;;
60464;SDS011;46314;52.392;9.758;2023-01-10T12:38:04;22.88;;;9.57;;
60464;SDS011;46314;52.392;9.758;2023-01-10T12:40:43;20.65;;;9.50;;
60464;SDS011;46314;52.392;9.758;2023-01-10T12:43:12;22.10;;;10.07;;
60464;SDS011;46314;52.392;9.758;2023-01-10T12:45:43;24.52;;;9.07;;
60464;SDS011;46314;52.392;9.758;2023-01-10T12:48:16;27.25;;;10.55;;
60464;SDS011;46314;52.392;9.758;2023-01-10T12:53:23;24.17;;;9.35;;
60464;SDS011;46314;52.392;9.758;2023-01-10T12:55:57;20.35;;;8.77;;
60464;SDS011;46314;52.392;9.758;2023-01-10T12:58:27;19.58;;;8.65;;
60464;SDS011;46314;52.392;9.758;2023-01-10T13:01:01;23.02;;;9.00;;
60464;SDS011;46314;52.392;9.758;2023-01-10T13:03:29;21.85;;;9.65;;
60464;SDS011;46314;52.392;9.758;2023-01-10T13:05:59;21.27;;;8.80;;
60464;SDS011;46314;52.392;9.758;2023-01-10T13:08:26;18.65;;;8.75;;
60464;SDS011;46314;52.392;9.758;2023-01-10T13:10:57;17.38;;;7.97;;
60464;SDS011;46314;52.392;9.758;2023-01-10T13:13:26;24.77;;;11.38;;
60464;SDS011;46314;52.392;9.758;2023-01-10T13:15:59;19.52;;;8.55;;
60464;SDS011;46314;52.392;9.758;2023-01-10T13:18:35;17.30;;;7.68;;
60464;SDS011;46314;52.392;9.758;2023-01-10T13:21:02;17.48;;;7.22;;
60464;SDS011;46314;52.392;9.758;2023-01-10T13:23:32;17.40;;;7.28;;
60464;SDS011;46314;52.392;9.758;2023-01-10T13:26:01;13.15;;;6.60;;
60464;SDS011;46314;52.392;9.758;2023-01-10T13:28:30;22.23;;;8.48;;
60464;SDS011;46314;52.392;9.758;2023-01-10T13:30:58;22.48;;;7.32;;
60464;SDS011;46314;52.392;9.758;2023-01-10T13:33:27;20.17;;;7.60;;
60464;SDS011;46314;52.392;9.758;2023-01-10T13:35:55;16.42;;;7.45;;
60464;SDS011;46314;52.392;9.758;2023-01-10T13:38:33;18.38;;;7.07;;
60464;SDS011;46314;52.392;9.758;2023-01-10T13:41:05;16.13;;;6.70;;
60464;SDS011;46314;52.392;9.758;2023-01-10T13:43:37;17.98;;;6.47;;
60464;SDS011;46314;52.392;9.758;2023-01-10T13:57:50;15.32;;;6.55;;
60464;SDS011;46314;52.392;9.758;2023-01-10T14:00:22;13.82;;;6.05;;
60464;SDS011;46314;52.392;9.758;2023-01-10T14:03:04;18.42;;;6.65;;
60464;SDS011;46314;52.392;9.758;2023-01-10T14:05:30;16.75;;;6.78;;
60464;SDS011;46314;52.392;9.758;2023-01-10T14:07:57;14.15;;;7.00;;
60464;SDS011;46314;52.392;9.758;2023-01-10T14:10:24;15.57;;;7.55;;
60464;SDS011;46314;52.392;9.758;2023-01-10T14:12:54;15.50;;;7.03;;
60464;SDS011;46314;52.392;9.758;2023-01-10T14:15:24;15.23;;;6.82;;
60464;SDS011;46314;52.392;9.758;2023-01-10T14:17:54;18.38;;;7.78;;
60464;SDS011;46314;52.392;9.758;2023-01-10T14:20:23;18.38;;;7.97;;
60464;SDS011;46314;52.392;9.758;2023-01-10T14:22:57;19.50;;;6.95;;
60464;SDS011;46314;52.392;9.758;2023-01-10T14:25:27;16.92;;;6.20;;
60464;SDS011;46314;52.392;9.758;2023-01-10T14:27:57;15.70;;;6.53;;
60464;SDS011;46314;52.392;9.758;2023-01-10T14:30:28;20.27;;;8.10;;
60464;SDS011;46314;52.392;9.758;2023-01-10T14:32:58;13.40;;;6.22;;
60464;SDS011;46314;52.392;9.758;2023-01-10T14:35:30;18.60;;;7.53;;
60464;SDS011;46314;52.392;9.758;2023-01-10T14:38:01;16.88;;;8.15;;
60464;SDS011;46314;52.392;9.758;2023-01-10T14:40:33;21.73;;;7.80;;
60464;SDS011;46314;52.392;9.758;2023-01-10T14:43:04;17.30;;;7.10;;
60464;SDS011;46314;52.392;9.758;2023-01-10T14:45:34;19.95;;;7.95;;
60464;SDS011;46314;52.392;9.758;2023-01-10T14:48:21;23.40;;;10.50;;
60464;SDS011;46314;52.392;9.758;2023-01-10T14:50:49;15.57;;;7.30;;
60464;SDS011;46314;52.392;9.758;2023-01-10T14:53:24;29.55;;;8.18;;
60464;SDS011;46314;52.392;9.758;2023-01-10T14:55:51;20.58;;;7.63;;
60464;SDS011;46314;52.392;9.758;2023-01-10T14:58:18;18.65;;;7.28;;
60464;SDS011;46314;52.392;9.758;2023-01-10T15:00:45;15.77;;;6.30;;
60464;SDS011;46314;52.392;9.758;2023-01-10T15:03:15;15.77;;;6.55;;
60464;SDS011;46314;52.392;9.758;2023-01-10T15:05:44;15.40;;;7.15;;